HYS983 LROP-LUKK
Flight info
| Callsign | HYS983 |
|---|---|
| Flight time | 0h 32m |
| Altitude | 27000 |
| Route | DENAK DCT URELA DCT FOCSA DCT KENUX DCT BCU DCT BUSES |
| Aircraft | A320/M-SDE3FGHIRWY/LB1 |
Departure
| Time | 2026-04-30 11:55 |
|---|---|
| Airport | Bucharest Henri Coandă International Airport (LROP) |
Arrival
| Time | 2026-04-30 12:28 |
|---|---|
| Airport | Chişinău International Airport (LUKK) |
| Time | Latitude | Longitude | Altitude | Speed | Heading |
|---|---|---|---|---|---|
| 2026-04-30 11:36 | 44.57265 | 26.08042 | 318 ft | 0 kts | 354° |
| 2026-04-30 11:46 | 44.57247 | 26.08045 | 323 ft | 4 kts | 354° |
| 2026-04-30 11:46 | 44.57220 | 26.08049 | 320 ft | 4 kts | 355° |
| 2026-04-30 11:47 | 44.57202 | 26.08043 | 320 ft | 4 kts | 69° |
| 2026-04-30 11:47 | 44.57198 | 26.08015 | 320 ft | 4 kts | 84° |
| 2026-04-30 11:47 | 44.57197 | 26.08001 | 319 ft | 0 kts | 84° |
| 2026-04-30 11:52 | 44.57202 | 26.08079 | 323 ft | 14 kts | 84° |
| 2026-04-30 11:52 | 44.57212 | 26.08214 | 323 ft | 14 kts | 84° |
| 2026-04-30 11:52 | 44.57222 | 26.08345 | 323 ft | 13 kts | 84° |
| 2026-04-30 11:52 | 44.57235 | 26.08467 | 323 ft | 12 kts | 70° |
| 2026-04-30 11:53 | 44.57307 | 26.08494 | 323 ft | 11 kts | 353° |
| 2026-04-30 11:53 | 44.57401 | 26.08480 | 321 ft | 16 kts | 354° |
| 2026-04-30 11:53 | 44.57517 | 26.08463 | 323 ft | 17 kts | 354° |
| 2026-04-30 11:53 | 44.57632 | 26.08447 | 323 ft | 17 kts | 354° |
| 2026-04-30 11:54 | 44.57666 | 26.08491 | 323 ft | 6 kts | 74° |
| 2026-04-30 11:54 | 44.57670 | 26.08532 | 324 ft | 0 kts | 84° |
| 2026-04-30 11:54 | 44.57672 | 26.08554 | 324 ft | 14 kts | 84° |
| 2026-04-30 11:54 | 44.57716 | 26.09148 | 322 ft | 104 kts | 84° |
| 2026-04-30 11:55 | 44.57813 | 26.10444 | 527 ft | 152 kts | 81° |
| 2026-04-30 11:55 | 44.57880 | 26.12009 | 1338 ft | 169 kts | 83° |
| 2026-04-30 11:55 | 44.57914 | 26.13706 | 2224 ft | 183 kts | 84° |
| 2026-04-30 11:55 | 44.57910 | 26.15499 | 3111 ft | 183 kts | 86° |
| 2026-04-30 11:56 | 44.57939 | 26.17300 | 3919 ft | 186 kts | 83° |
| 2026-04-30 11:56 | 44.58073 | 26.19117 | 4738 ft | 188 kts | 81° |
| 2026-04-30 11:56 | 44.58270 | 26.20985 | 5379 ft | 202 kts | 82° |
| 2026-04-30 11:56 | 44.58600 | 26.22984 | 5915 ft | 221 kts | 65° |
| 2026-04-30 11:57 | 44.59630 | 26.24670 | 6549 ft | 239 kts | 38° |
| 2026-04-30 11:57 | 44.61202 | 26.25608 | 7191 ft | 255 kts | 15° |
| 2026-04-30 11:57 | 44.62981 | 26.26135 | 7806 ft | 270 kts | 17° |
| 2026-04-30 11:57 | 44.64744 | 26.27191 | 8467 ft | 280 kts | 28° |
| 2026-04-30 11:58 | 44.66484 | 26.28508 | 9248 ft | 287 kts | 30° |
| 2026-04-30 11:58 | 44.68239 | 26.29927 | 10037 ft | 295 kts | 31° |
| 2026-04-30 11:58 | 44.70015 | 26.31381 | 10647 ft | 307 kts | 30° |
| 2026-04-30 11:58 | 44.71935 | 26.32933 | 10905 ft | 329 kts | 30° |
| 2026-04-30 11:59 | 44.73974 | 26.34546 | 11408 ft | 341 kts | 29° |
| 2026-04-30 11:59 | 44.76068 | 26.36175 | 12119 ft | 346 kts | 28° |
| 2026-04-30 11:59 | 44.78186 | 26.37804 | 12875 ft | 349 kts | 28° |
| 2026-04-30 11:59 | 44.80339 | 26.39457 | 13532 ft | 356 kts | 28° |
| 2026-04-30 12:00 | 44.82519 | 26.41135 | 14239 ft | 359 kts | 28° |
| 2026-04-30 12:00 | 44.84719 | 26.42831 | 14863 ft | 363 kts | 27° |
| 2026-04-30 12:00 | 44.86947 | 26.44552 | 15446 ft | 368 kts | 27° |
| 2026-04-30 12:00 | 44.89201 | 26.46294 | 16078 ft | 371 kts | 27° |
| 2026-04-30 12:01 | 44.91484 | 26.48061 | 16674 ft | 376 kts | 27° |
| 2026-04-30 12:01 | 44.93764 | 26.49831 | 17226 ft | 381 kts | 26° |
| 2026-04-30 12:01 | 44.96109 | 26.51651 | 17796 ft | 386 kts | 26° |
| 2026-04-30 12:01 | 44.98482 | 26.53496 | 18365 ft | 392 kts | 26° |
| 2026-04-30 12:02 | 45.00888 | 26.55367 | 18886 ft | 397 kts | 25° |
| 2026-04-30 12:02 | 45.03321 | 26.57261 | 19412 ft | 402 kts | 25° |
| 2026-04-30 12:02 | 45.05784 | 26.59178 | 19940 ft | 406 kts | 25° |
| 2026-04-30 12:02 | 45.08271 | 26.61124 | 20469 ft | 411 kts | 25° |
| 2026-04-30 12:03 | 45.10788 | 26.63092 | 20988 ft | 415 kts | 24° |
| 2026-04-30 12:03 | 45.15902 | 26.67091 | 21956 ft | 424 kts | 24° |
| 2026-04-30 12:03 | 45.18498 | 26.69119 | 22388 ft | 430 kts | 23° |
| 2026-04-30 12:04 | 45.21161 | 26.71201 | 22531 ft | 442 kts | 23° |
| 2026-04-30 12:04 | 45.23879 | 26.73331 | 22886 ft | 449 kts | 24° |
| 2026-04-30 12:04 | 45.26626 | 26.75490 | 23313 ft | 453 kts | 24° |
| 2026-04-30 12:04 | 45.29393 | 26.77670 | 23783 ft | 458 kts | 23° |
| 2026-04-30 12:05 | 45.32197 | 26.79883 | 24209 ft | 462 kts | 23° |
| 2026-04-30 12:05 | 45.35013 | 26.82110 | 24582 ft | 465 kts | 23° |
| 2026-04-30 12:05 | 45.37827 | 26.84332 | 24940 ft | 468 kts | 23° |
| 2026-04-30 12:05 | 45.40677 | 26.86612 | 25329 ft | 471 kts | 24° |
| 2026-04-30 12:06 | 45.43531 | 26.88929 | 25658 ft | 476 kts | 24° |
| 2026-04-30 12:06 | 45.46446 | 26.91293 | 25782 ft | 485 kts | 24° |
| 2026-04-30 12:06 | 45.49408 | 26.93675 | 25916 ft | 493 kts | 23° |
| 2026-04-30 12:06 | 45.52427 | 26.96083 | 26046 ft | 501 kts | 23° |
| 2026-04-30 12:07 | 45.55501 | 26.98519 | 26174 ft | 509 kts | 23° |
| 2026-04-30 12:07 | 45.58627 | 27.00990 | 26313 ft | 516 kts | 23° |
| 2026-04-30 12:07 | 45.61780 | 27.03489 | 26548 ft | 520 kts | 23° |
| 2026-04-30 12:07 | 45.64954 | 27.06014 | 26827 ft | 523 kts | 23° |
| 2026-04-30 12:08 | 45.68144 | 27.08560 | 27065 ft | 527 kts | 23° |
| 2026-04-30 12:08 | 45.71355 | 27.11129 | 27265 ft | 531 kts | 23° |
| 2026-04-30 12:08 | 45.74587 | 27.13723 | 27325 ft | 531 kts | 23° |
| 2026-04-30 12:08 | 45.77770 | 27.16282 | 27317 ft | 529 kts | 23° |
| 2026-04-30 12:09 | 45.80963 | 27.18853 | 27320 ft | 525 kts | 23° |
| 2026-04-30 12:09 | 45.84141 | 27.21412 | 27321 ft | 524 kts | 23° |
| 2026-04-30 12:09 | 45.87321 | 27.23970 | 27322 ft | 524 kts | 23° |
| 2026-04-30 12:09 | 45.90502 | 27.26528 | 27318 ft | 524 kts | 23° |
| 2026-04-30 12:10 | 45.93683 | 27.29085 | 27319 ft | 524 kts | 23° |
| 2026-04-30 12:10 | 45.96860 | 27.31648 | 27314 ft | 522 kts | 24° |
| 2026-04-30 12:10 | 46.00026 | 27.34213 | 27316 ft | 522 kts | 24° |
| 2026-04-30 12:10 | 46.03190 | 27.36781 | 27316 ft | 522 kts | 24° |
| 2026-04-30 12:11 | 46.06308 | 27.39311 | 27311 ft | 521 kts | 24° |
| 2026-04-30 12:11 | 46.09467 | 27.41876 | 27307 ft | 521 kts | 24° |
| 2026-04-30 12:11 | 46.12634 | 27.44449 | 27330 ft | 521 kts | 24° |
| 2026-04-30 12:11 | 46.15775 | 27.47006 | 27004 ft | 513 kts | 24° |
| 2026-04-30 12:12 | 46.18835 | 27.49513 | 26857 ft | 494 kts | 24° |
| 2026-04-30 12:12 | 46.21767 | 27.51925 | 26708 ft | 475 kts | 24° |
| 2026-04-30 12:12 | 46.24592 | 27.54249 | 26580 ft | 459 kts | 24° |
| 2026-04-30 12:12 | 46.27323 | 27.56492 | 25984 ft | 446 kts | 24° |
| 2026-04-30 12:13 | 46.30000 | 27.58685 | 25132 ft | 438 kts | 24° |
| 2026-04-30 12:13 | 46.32633 | 27.60835 | 24297 ft | 430 kts | 24° |
| 2026-04-30 12:13 | 46.35189 | 27.62921 | 23414 ft | 424 kts | 24° |
| 2026-04-30 12:13 | 46.37723 | 27.64995 | 22770 ft | 410 kts | 24° |
| 2026-04-30 12:14 | 46.40145 | 27.66986 | 22380 ft | 392 kts | 24° |
| 2026-04-30 12:14 | 46.42474 | 27.68905 | 21902 ft | 378 kts | 24° |
| 2026-04-30 12:14 | 46.44719 | 27.70756 | 21454 ft | 365 kts | 24° |
| 2026-04-30 12:14 | 46.46891 | 27.72546 | 21001 ft | 354 kts | 24° |
| 2026-04-30 12:15 | 46.49027 | 27.74304 | 20559 ft | 353 kts | 24° |
| 2026-04-30 12:15 | 46.51173 | 27.76067 | 20119 ft | 355 kts | 24° |
| 2026-04-30 12:15 | 46.53325 | 27.77839 | 19667 ft | 355 kts | 24° |
| 2026-04-30 12:15 | 46.55476 | 27.79618 | 19214 ft | 356 kts | 24° |
| 2026-04-30 12:16 | 46.57627 | 27.81399 | 18760 ft | 356 kts | 24° |
| 2026-04-30 12:16 | 46.59056 | 27.82582 | 18441 ft | 356 kts | 24° |
| 2026-04-30 12:16 | 46.61205 | 27.84364 | 17964 ft | 355 kts | 24° |
| 2026-04-30 12:16 | 46.63344 | 27.86139 | 17517 ft | 353 kts | 24° |
| 2026-04-30 12:17 | 46.67602 | 27.89682 | 16607 ft | 351 kts | 25° |
| 2026-04-30 12:17 | 46.69714 | 27.91443 | 16162 ft | 350 kts | 24° |
| 2026-04-30 12:17 | 46.72504 | 27.93772 | 15571 ft | 347 kts | 25° |
| 2026-04-30 12:18 | 46.73890 | 27.94931 | 15270 ft | 346 kts | 25° |
| 2026-04-30 12:18 | 46.75977 | 27.96676 | 14831 ft | 344 kts | 25° |
| 2026-04-30 12:18 | 46.77892 | 27.98786 | 14405 ft | 350 kts | 45° |
| 2026-04-30 12:18 | 46.79190 | 28.01802 | 13973 ft | 353 kts | 65° |
| 2026-04-30 12:19 | 46.80110 | 28.05123 | 13501 ft | 351 kts | 67° |
| 2026-04-30 12:19 | 46.80979 | 28.08400 | 12957 ft | 351 kts | 67° |
| 2026-04-30 12:19 | 46.81859 | 28.11715 | 12438 ft | 350 kts | 67° |
| 2026-04-30 12:19 | 46.82738 | 28.15011 | 11901 ft | 348 kts | 67° |
| 2026-04-30 12:20 | 46.83617 | 28.18287 | 11376 ft | 346 kts | 67° |
| 2026-04-30 12:20 | 46.84495 | 28.21551 | 10867 ft | 344 kts | 68° |
| 2026-04-30 12:20 | 46.85368 | 28.24784 | 10364 ft | 341 kts | 68° |
| 2026-04-30 12:20 | 46.86234 | 28.27987 | 9833 ft | 337 kts | 68° |
| 2026-04-30 12:21 | 46.87086 | 28.31144 | 9249 ft | 327 kts | 67° |
| 2026-04-30 12:21 | 46.87902 | 28.34176 | 8635 ft | 314 kts | 68° |
| 2026-04-30 12:21 | 46.88676 | 28.37109 | 8029 ft | 303 kts | 68° |
| 2026-04-30 12:21 | 46.89417 | 28.39940 | 7425 ft | 294 kts | 68° |
| 2026-04-30 12:22 | 46.90139 | 28.42693 | 6848 ft | 286 kts | 68° |
| 2026-04-30 12:22 | 46.90830 | 28.45378 | 6238 ft | 279 kts | 67° |
| 2026-04-30 12:22 | 46.91496 | 28.48005 | 5625 ft | 272 kts | 70° |
| 2026-04-30 12:22 | 46.91858 | 28.50714 | 5031 ft | 274 kts | 83° |
| 2026-04-30 12:23 | 46.91927 | 28.53553 | 4424 ft | 283 kts | 87° |
| 2026-04-30 12:23 | 46.91964 | 28.56402 | 4080 ft | 281 kts | 86° |
| 2026-04-30 12:23 | 46.92027 | 28.59240 | 3999 ft | 268 kts | 86° |
| 2026-04-30 12:23 | 46.92091 | 28.61873 | 4013 ft | 259 kts | 86° |
| 2026-04-30 12:24 | 46.92153 | 28.64503 | 3947 ft | 258 kts | 85° |
| 2026-04-30 12:24 | 46.92214 | 28.67121 | 3663 ft | 258 kts | 85° |
| 2026-04-30 12:24 | 46.92274 | 28.69763 | 3315 ft | 253 kts | 86° |
| 2026-04-30 12:24 | 46.92330 | 28.72283 | 2973 ft | 243 kts | 84° |
| 2026-04-30 12:25 | 46.92383 | 28.74687 | 2644 ft | 227 kts | 86° |
| 2026-04-30 12:25 | 46.92431 | 28.76872 | 2354 ft | 210 kts | 85° |
| 2026-04-30 12:25 | 46.92476 | 28.78904 | 2074 ft | 190 kts | 84° |
| 2026-04-30 12:25 | 46.92515 | 28.80739 | 1828 ft | 173 kts | 83° |
| 2026-04-30 12:26 | 46.92551 | 28.82419 | 1611 ft | 154 kts | 82° |
| 2026-04-30 12:26 | 46.92585 | 28.83934 | 1383 ft | 145 kts | 83° |
| 2026-04-30 12:26 | 46.92616 | 28.85371 | 1237 ft | 136 kts | 86° |
| 2026-04-30 12:26 | 46.92613 | 28.86743 | 1032 ft | 134 kts | 84° |
| 2026-04-30 12:27 | 46.92646 | 28.88070 | 840 ft | 128 kts | 82° |
| 2026-04-30 12:27 | 46.92685 | 28.89374 | 627 ft | 127 kts | 82° |
| 2026-04-30 12:27 | 46.92720 | 28.90686 | 465 ft | 130 kts | 84° |
| 2026-04-30 12:27 | 46.92759 | 28.91930 | 409 ft | 110 kts | 86° |
| 2026-04-30 12:28 | 46.92773 | 28.92718 | 408 ft | 38 kts | 89° |
| 2026-04-30 12:28 | 46.92781 | 28.93047 | 409 ft | 34 kts | 87° |
| 2026-04-30 12:28 | 46.92791 | 28.93357 | 408 ft | 25 kts | 84° |
| 2026-04-30 12:28 | 46.92907 | 28.93414 | 407 ft | 13 kts | 358° |
| 2026-04-30 12:29 | 46.93009 | 28.93410 | 407 ft | 16 kts | 359° |
| 2026-04-30 12:29 | 46.93100 | 28.93432 | 410 ft | 3 kts | 10° |
| 2026-04-30 12:29 | 46.93108 | 28.93434 | 411 ft | 0 kts | 9° |
| 2026-04-30 12:29 | 46.93114 | 28.93435 | 411 ft | 3 kts | 9° |
| 2026-04-30 12:30 | 46.93145 | 28.93466 | 411 ft | 9 kts | 59° |
| 2026-04-30 12:30 | 46.93144 | 28.93564 | 410 ft | 12 kts | 97° |
| 2026-04-30 12:30 | 46.93213 | 28.93636 | 409 ft | 16 kts | 8° |
| 2026-04-30 12:30 | 46.93270 | 28.93612 | 408 ft | 9 kts | 290° |
| 2026-04-30 12:31 | 46.93275 | 28.93542 | 408 ft | 0 kts | 277° |